createdAt,value
2019-04-23T00:00:19.847Z,999.88
2019-04-23T00:01:33.860Z,999.86
2019-04-23T00:02:20.505Z,999.85
2019-04-23T00:03:18.757Z,999.86
2019-04-23T00:04:20.150Z,999.83
2019-04-23T00:05:29.587Z,999.84
2019-04-23T00:07:41.498Z,999.80
2019-04-23T00:08:42.091Z,999.81
2019-04-23T00:09:26.044Z,999.75
2019-04-23T00:10:25.228Z,999.76
2019-04-23T00:12:30.033Z,999.76
2019-04-23T00:13:21.502Z,999.78
2019-04-23T00:14:49.495Z,999.80
2019-04-23T00:15:23.992Z,999.78
2019-04-23T00:16:26.283Z,999.81
2019-04-23T00:17:27.959Z,999.80
2019-04-23T00:18:32.255Z,999.78
2019-04-23T00:19:27.586Z,999.81
2019-04-23T00:20:22.022Z,999.78
2019-04-23T00:21:20.245Z,999.80
2019-04-23T00:22:20.223Z,999.76
2019-04-23T00:23:16.362Z,999.74
2019-04-23T00:24:28.193Z,999.70
2019-04-23T00:26:37.208Z,999.70
2019-04-23T00:27:32.022Z,999.68
2019-04-23T00:30:26.584Z,999.68
2019-04-23T00:31:27.830Z,999.66
2019-04-23T00:33:25.306Z,999.68
2019-04-23T00:34:29.372Z,999.62
2019-04-23T00:35:18.087Z,999.69
2019-04-23T00:36:27.215Z,999.63
2019-04-23T00:37:35.593Z,999.62
2019-04-23T00:38:28.624Z,999.62
2019-04-23T00:39:24.975Z,999.56
2019-04-23T00:40:28.799Z,999.54
2019-04-23T00:41:24.957Z,999.58
2019-04-23T00:43:22.873Z,999.53
2019-04-23T00:44:26.875Z,999.57
2019-04-23T00:45:24.483Z,999.55
2019-04-23T00:46:25.191Z,999.52
2019-04-23T00:47:28.304Z,999.47
2019-04-23T00:49:29.091Z,999.49
2019-04-23T00:50:30.259Z,999.51
2019-04-23T00:51:22.749Z,999.48
2019-04-23T00:52:26.404Z,999.47
2019-04-23T00:53:22.141Z,999.43
2019-04-23T00:54:30.748Z,999.46
2019-04-23T00:55:21.213Z,999.46
2019-04-23T00:56:38.626Z,999.45
2019-04-23T00:57:29.428Z,999.42
2019-04-23T00:58:30.416Z,999.45
2019-04-23T00:59:26.879Z,999.43
2019-04-23T01:00:47.389Z,999.43
2019-04-23T01:01:26.473Z,999.45
2019-04-23T01:02:22.961Z,999.44
2019-04-23T01:03:21.382Z,999.42
2019-04-23T01:04:25.607Z,999.42
2019-04-23T01:05:23.745Z,999.44
2019-04-23T01:06:25.640Z,999.42
2019-04-23T01:07:29.883Z,999.41
2019-04-23T01:08:24.945Z,999.42
2019-04-23T01:10:27.691Z,999.44
2019-04-23T01:11:27.561Z,999.46
2019-04-23T01:12:31.239Z,999.46
2019-04-23T01:14:29.587Z,999.42
2019-04-23T01:16:25.136Z,999.43
2019-04-23T01:17:32.210Z,999.41
2019-04-23T01:18:42.050Z,999.44
2019-04-23T01:19:31.714Z,999.43
2019-04-23T01:20:28.521Z,999.43
2019-04-23T01:21:05.707Z,999.39
2019-04-23T01:22:04.379Z,999.38
2019-04-23T01:23:05.420Z,999.39
2019-04-23T01:24:10.057Z,999.39
2019-04-23T01:25:13.401Z,999.38
2019-04-23T01:26:26.418Z,999.40
2019-04-23T01:28:35.690Z,999.36
2019-04-23T01:29:38.921Z,999.42
2019-04-23T01:30:28.209Z,999.37
2019-04-23T01:31:27.192Z,999.37
2019-04-23T01:32:33.548Z,999.35
2019-04-23T01:34:31.442Z,999.38
2019-04-23T01:36:01.417Z,999.38
2019-04-23T01:37:30.449Z,999.36
2019-04-23T01:38:35.510Z,999.34
2019-04-23T01:39:30.665Z,999.34
2019-04-23T01:40:31.900Z,999.32
2019-04-23T01:41:38.389Z,999.33
2019-04-23T01:42:36.002Z,999.33
2019-04-23T01:43:30.271Z,999.34
2019-04-23T01:44:36.821Z,999.35
2019-04-23T01:45:34.195Z,999.32
2019-04-23T01:46:35.832Z,999.34
2019-04-23T01:47:32.044Z,999.41
2019-04-23T01:48:34.358Z,999.39
2019-04-23T01:49:39.588Z,999.39
2019-04-23T01:50:37.646Z,999.40
2019-04-23T01:51:36.785Z,999.35
2019-04-23T01:52:38.087Z,999.34
2019-04-23T01:53:37.101Z,999.34
2019-04-23T01:54:35.121Z,999.33
2019-04-23T01:55:36.371Z,999.31
2019-04-23T01:56:28.397Z,999.28
2019-04-23T01:57:37.733Z,999.27
2019-04-23T01:58:38.450Z,999.24
2019-04-23T01:59:33.477Z,999.24
2019-04-23T02:00:34.120Z,999.23
2019-04-23T02:01:36.632Z,999.23
2019-04-23T02:02:40.863Z,999.20
2019-04-23T02:03:35.553Z,999.16
2019-04-23T02:04:40.574Z,999.13
2019-04-23T02:05:38.525Z,999.13
2019-04-23T02:06:33.117Z,999.14
2019-04-23T02:07:39.968Z,999.09
2019-04-23T02:08:36.602Z,999.09
2019-04-23T02:09:40.196Z,999.10
2019-04-23T02:10:42.714Z,999.10
2019-04-23T02:11:34.257Z,999.05
2019-04-23T02:12:33.290Z,999.09
2019-04-23T02:13:48.793Z,999.02
2019-04-23T02:14:37.562Z,999.02
2019-04-23T02:15:49.474Z,998.99
2019-04-23T02:16:35.871Z,999.00
2019-04-23T02:17:41.143Z,998.95
2019-04-23T02:18:52.866Z,998.91
2019-04-23T02:19:40.506Z,998.95
2019-04-23T02:20:36.279Z,998.93
2019-04-23T02:21:39.950Z,998.94
2019-04-23T02:22:38.949Z,998.97
2019-04-23T02:26:34.301Z,998.87
2019-04-23T02:27:37.938Z,998.82
2019-04-23T02:28:39.188Z,998.83
2019-04-23T02:29:46.571Z,998.79
2019-04-23T02:30:59.885Z,998.76
2019-04-23T02:31:55.680Z,998.75
2019-04-23T02:32:52.228Z,998.73
2019-04-23T02:35:50.539Z,998.75
2019-04-23T02:36:45.109Z,998.74
2019-04-23T02:38:46.332Z,998.75
2019-04-23T02:39:49.806Z,998.74
2019-04-23T02:41:47.039Z,998.74
2019-04-23T02:43:48.964Z,998.73
2019-04-23T02:44:39.477Z,998.71
2019-04-23T02:45:47.737Z,998.73
2019-04-23T02:46:40.951Z,998.76
2019-04-23T02:47:42.617Z,998.74
2019-04-23T02:48:43.905Z,998.76
2019-04-23T02:50:40.120Z,998.66
2019-04-23T02:51:48.094Z,998.68
2019-04-23T02:52:47.296Z,998.60
2019-04-23T02:55:59.766Z,998.65
2019-04-23T02:56:49.708Z,998.60
2019-04-23T02:57:44.052Z,998.59
2019-04-23T02:58:43.885Z,998.59
2019-04-23T02:59:56.018Z,998.59
2019-04-23T03:00:59.070Z,998.60
2019-04-23T03:02:05.197Z,998.56
2019-04-23T03:03:51.300Z,998.50
2019-04-23T03:04:50.033Z,998.48
2019-04-23T03:05:46.777Z,998.46
2019-04-23T03:07:48.777Z,998.47
2019-04-23T03:09:44.910Z,998.46
2019-04-23T03:15:00.852Z,998.41
2019-04-23T03:16:56.373Z,998.38
2019-04-23T03:17:50.043Z,998.38
2019-04-23T03:18:47.823Z,998.34
2019-04-23T03:20:57.458Z,998.32
2019-04-23T03:22:56.160Z,998.32
2019-04-23T03:23:51.975Z,998.29
2019-04-23T03:25:49.592Z,998.33
2019-04-23T03:27:02.246Z,998.29
2019-04-23T03:29:04.325Z,998.29
2019-04-23T03:30:01.835Z,998.28
2019-04-23T03:32:45.479Z,998.27
2019-04-23T03:38:13.954Z,998.30
2019-04-23T03:38:51.473Z,998.25
2019-04-23T03:40:46.456Z,998.30
2019-04-23T03:42:02.031Z,998.23
2019-04-23T03:46:07.058Z,998.23
2019-04-23T03:46:43.987Z,998.24
2019-04-23T03:49:46.443Z,998.22
2019-04-23T03:50:39.077Z,998.22
2019-04-23T03:51:52.269Z,998.23
2019-04-23T03:52:50.612Z,998.24
2019-04-23T03:53:52.226Z,998.22
2019-04-23T03:54:44.585Z,998.23
2019-04-23T03:57:38.319Z,998.27
2019-04-23T04:02:02.838Z,998.20
2019-04-23T04:04:14.870Z,998.20
2019-04-23T04:05:06.055Z,998.24
2019-04-23T04:06:48.355Z,998.27
2019-04-23T04:08:50.813Z,998.25
2019-04-23T04:09:47.589Z,998.28
2019-04-23T04:10:51.959Z,998.26
2019-04-23T04:11:33.452Z,998.27
2019-04-23T04:12:45.959Z,998.27
2019-04-23T04:13:55.835Z,998.25
2019-04-23T04:15:55.697Z,998.22
2019-04-23T04:16:49.173Z,998.21
2019-04-23T04:17:52.259Z,998.17
2019-04-23T04:19:06.416Z,998.22
2019-04-23T04:19:47.042Z,998.18
2019-04-23T04:20:48.915Z,998.16
2019-04-23T04:21:53.003Z,998.17
2019-04-23T04:23:00.376Z,998.20
2019-04-23T04:23:51.488Z,998.18
2019-04-23T04:25:53.486Z,998.21
2019-04-23T04:28:58.820Z,998.15
2019-04-23T04:31:59.843Z,998.14
2019-04-23T04:32:59.075Z,998.19
2019-04-23T04:35:50.153Z,998.17
2019-04-23T04:37:54.450Z,998.17
2019-04-23T04:40:53.285Z,998.16
2019-04-23T04:42:06.089Z,998.15
2019-04-23T04:44:56.952Z,998.16
2019-04-23T04:47:45.616Z,998.14
2019-04-23T04:48:58.842Z,998.19
2019-04-23T04:49:58.343Z,998.19
2019-04-23T04:51:00.245Z,998.18
2019-04-23T04:54:55.956Z,998.17
2019-04-23T04:55:59.296Z,998.18
2019-04-23T04:56:55.843Z,998.14
2019-04-23T04:58:58.543Z,998.08
2019-04-23T05:01:03.993Z,998.06
2019-04-23T05:03:32.752Z,998.05
2019-04-23T05:06:11.760Z,998.01
2019-04-23T05:07:02.613Z,998.04
2019-04-23T05:07:50.260Z,998.00
2019-04-23T05:08:54.431Z,998.04
2019-04-23T05:09:59.386Z,997.99
2019-04-23T05:11:02.049Z,998.00
2019-04-23T05:12:01.509Z,997.96
2019-04-23T05:12:55.059Z,998.00
2019-04-23T05:13:54.919Z,997.97
2019-04-23T05:15:00.794Z,998.00
2019-04-23T05:16:50.737Z,998.00
2019-04-23T05:19:51.153Z,997.99
2019-04-23T05:20:52.977Z,997.99
2019-04-23T05:21:53.968Z,997.94
2019-04-23T05:23:00.584Z,997.98
2019-04-23T05:23:49.784Z,997.90
2019-04-23T05:24:46.515Z,997.90
2019-04-23T05:25:44.628Z,997.98
2019-04-23T05:28:00.849Z,997.94
2019-04-23T05:28:55.611Z,997.95
2019-04-23T05:29:54.405Z,997.94
2019-04-23T05:30:52.163Z,997.98
2019-04-23T05:31:37.637Z,997.96
2019-04-23T05:32:48.879Z,997.99
2019-04-23T05:33:49.478Z,997.95
2019-04-23T05:34:50.446Z,997.94
2019-04-23T05:36:08.911Z,997.94
2019-04-23T05:36:52.155Z,997.94
2019-04-23T05:38:01.751Z,997.94
2019-04-23T05:39:07.578Z,997.97
2019-04-23T05:39:49.242Z,997.97
2019-04-23T05:42:00.640Z,997.95
2019-04-23T05:42:50.040Z,997.93
2019-04-23T05:43:49.191Z,997.94
2019-04-23T05:44:52.786Z,997.90
2019-04-23T05:45:48.381Z,997.90
2019-04-23T05:46:49.089Z,997.94
2019-04-23T05:47:53.456Z,997.97
2019-04-23T05:48:52.271Z,997.98
2019-04-23T05:51:55.560Z,997.94
2019-04-23T05:52:54.145Z,997.91
2019-04-23T05:53:50.974Z,997.93
2019-04-23T05:54:56.289Z,997.90
2019-04-23T05:55:55.444Z,997.89
2019-04-23T05:56:44.379Z,997.94
2019-04-23T05:57:44.632Z,997.89
2019-04-23T05:58:53.049Z,997.89
2019-04-23T05:59:46.803Z,997.85
2019-04-23T06:00:59.856Z,997.85
2019-04-23T06:03:56.848Z,997.84
2019-04-23T06:04:49.647Z,997.87
2019-04-23T06:05:58.273Z,997.82
2019-04-23T06:07:15.088Z,997.84
2019-04-23T06:07:47.218Z,997.84
2019-04-23T06:08:53.490Z,997.80
2019-04-23T06:09:53.174Z,997.81
2019-04-23T06:12:45.302Z,997.86
2019-04-23T06:13:56.123Z,997.86
2019-04-23T06:14:53.821Z,997.86
2019-04-23T06:16:05.218Z,997.85
2019-04-23T06:16:55.241Z,997.80
2019-04-23T06:17:47.568Z,997.81
2019-04-23T06:18:58.671Z,997.83
2019-04-23T06:19:51.384Z,997.83
2019-04-23T06:22:04.423Z,997.77
2019-04-23T06:22:49.529Z,997.79
2019-04-23T06:24:06.252Z,997.76
2019-04-23T06:24:48.870Z,997.74
2019-04-23T06:26:15.005Z,997.78
2019-04-23T06:26:55.529Z,997.72
2019-04-23T06:27:56.019Z,997.72
2019-04-23T06:28:50.757Z,997.71
2019-04-23T06:29:49.892Z,997.72
2019-04-23T06:30:54.298Z,997.72
2019-04-23T06:31:48.770Z,997.74
2019-04-23T06:32:55.226Z,997.73
2019-04-23T06:33:48.094Z,997.68
2019-04-23T06:35:11.331Z,997.68
2019-04-23T06:35:50.411Z,997.65
2019-04-23T06:36:54.136Z,997.62
2019-04-23T06:39:48.407Z,997.59
2019-04-23T06:40:59.508Z,997.59
2019-04-23T06:42:53.101Z,997.59
2019-04-23T06:44:00.486Z,997.60
2019-04-23T06:44:54.944Z,997.60
2019-04-23T06:45:49.251Z,997.60
2019-04-23T06:47:54.026Z,997.57
2019-04-23T06:48:47.098Z,997.59
2019-04-23T06:49:51.318Z,997.60
2019-04-23T06:51:02.259Z,997.64
2019-04-23T06:52:00.919Z,997.63
2019-04-23T06:52:50.053Z,997.62
2019-04-23T06:53:51.627Z,997.63
2019-04-23T06:54:56.026Z,997.60
2019-04-23T06:55:59.933Z,997.66
2019-04-23T06:57:00.908Z,997.70
2019-04-23T06:57:55.549Z,997.94
2019-04-23T06:58:57.221Z,998.18
2019-04-23T06:59:48.463Z,998.20
2019-04-23T07:00:55.834Z,998.32
2019-04-23T07:02:01.163Z,998.38
2019-04-23T07:02:54.083Z,998.33
2019-04-23T07:04:28.947Z,998.45
2019-04-23T07:04:57.202Z,998.55
2019-04-23T07:06:03.440Z,998.66
2019-04-23T07:07:13.638Z,998.98
2019-04-23T07:09:51.625Z,998.62
2019-04-23T07:10:59.146Z,998.46
2019-04-23T07:11:48.177Z,998.66
2019-04-23T07:13:10.595Z,998.87
2019-04-23T07:15:59.480Z,999.04
2019-04-23T07:16:52.849Z,999.01
2019-04-23T07:17:47.684Z,998.94
2019-04-23T07:18:57.537Z,998.83
2019-04-23T07:20:08.286Z,998.90
2019-04-23T07:20:50.878Z,998.92
2019-04-23T07:22:03.332Z,998.89
2019-04-23T07:23:03.603Z,998.96
2019-04-23T07:24:52.810Z,999.02
2019-04-23T07:26:01.345Z,998.94
2019-04-23T07:26:49.470Z,998.92
2019-04-23T07:27:58.525Z,998.92
2019-04-23T07:30:03.895Z,998.83
2019-04-23T07:31:00.219Z,998.86
2019-04-23T07:31:54.737Z,998.78
2019-04-23T07:32:57.220Z,998.55
2019-04-23T07:33:57.539Z,998.58
2019-04-23T07:34:55.715Z,998.43
2019-04-23T07:35:51.887Z,998.28
2019-04-23T07:36:55.328Z,998.26
2019-04-23T07:39:01.514Z,998.46
2019-04-23T07:40:11.297Z,998.39
2019-04-23T07:40:55.776Z,998.27
2019-04-23T07:42:56.597Z,997.94
2019-04-23T07:44:08.479Z,997.86
2019-04-23T07:44:58.072Z,997.73
2019-04-23T07:46:06.043Z,997.74
2019-04-23T07:47:11.238Z,997.76
2019-04-23T07:48:03.470Z,997.70
2019-04-23T07:48:56.022Z,997.75
2019-04-23T07:50:09.807Z,997.74
2019-04-23T07:51:02.733Z,997.69
2019-04-23T07:52:03.625Z,997.63
2019-04-23T07:54:01.329Z,997.52
2019-04-23T07:55:02.504Z,997.52
2019-04-23T07:57:02.254Z,997.45
2019-04-23T07:58:58.371Z,997.40
2019-04-23T08:00:00.721Z,997.41
2019-04-23T08:01:08.339Z,997.29
2019-04-23T08:01:56.931Z,997.27
2019-04-23T08:03:08.404Z,997.18
2019-04-23T08:03:59.240Z,997.14
2019-04-23T08:05:55.578Z,997.09
2019-04-23T08:07:00.451Z,997.11
2019-04-23T08:07:58.763Z,997.18
2019-04-23T08:08:56.612Z,997.19
2019-04-23T08:10:00.656Z,997.24
2019-04-23T08:11:18.015Z,997.28
2019-04-23T08:11:56.770Z,997.26
2019-04-23T08:13:04.241Z,997.28
2019-04-23T08:13:59.089Z,997.20
2019-04-23T08:15:02.262Z,997.30
2019-04-23T08:15:53.968Z,997.27
2019-04-23T08:16:58.191Z,997.22
2019-04-23T08:18:01.168Z,997.17
2019-04-23T08:19:14.029Z,997.20
2019-04-23T08:20:03.188Z,997.22
2019-04-23T08:20:53.893Z,997.12
2019-04-23T08:22:10.813Z,997.15
2019-04-23T08:23:06.755Z,997.18
2019-04-23T08:24:05.857Z,997.15
2019-04-23T08:25:11.010Z,997.17
2019-04-23T08:26:02.773Z,997.12
2019-04-23T08:27:07.448Z,997.05
2019-04-23T08:27:57.476Z,997.02
2019-04-23T08:29:06.391Z,997.05
2019-04-23T08:29:55.815Z,997.06
2019-04-23T08:30:59.034Z,996.96
2019-04-23T08:32:03.994Z,996.93
2019-04-23T08:32:58.753Z,996.87
2019-04-23T08:34:06.079Z,996.90
2019-04-23T08:36:05.699Z,996.74
2019-04-23T08:37:05.075Z,996.71
2019-04-23T08:38:12.011Z,996.69
2019-04-23T08:39:00.160Z,996.72
2019-04-23T08:39:52.468Z,996.72
2019-04-23T08:41:14.285Z,996.71
2019-04-23T08:42:25.063Z,996.74
2019-04-23T08:43:00.913Z,996.73
2019-04-23T08:44:07.046Z,996.77
2019-04-23T08:45:58.382Z,996.74
2019-04-23T08:47:18.776Z,996.63
2019-04-23T08:48:07.559Z,996.68
2019-04-23T08:49:06.677Z,996.70
2019-04-23T08:49:56.671Z,996.67
2019-04-23T08:51:34.365Z,996.62
2019-04-23T08:53:05.539Z,996.62
2019-04-23T08:54:03.005Z,996.60
2019-04-23T08:55:13.633Z,996.59
2019-04-23T08:56:16.486Z,996.62
2019-04-23T08:57:08.981Z,996.58
2019-04-23T08:57:55.500Z,996.59
2019-04-23T08:59:11.019Z,996.52
2019-04-23T09:00:14.176Z,996.49
2019-04-23T09:01:05.770Z,996.45
2019-04-23T09:02:18.822Z,996.48
2019-04-23T09:03:04.672Z,996.46
2019-04-23T09:04:00.531Z,996.42
2019-04-23T09:05:16.126Z,996.35
2019-04-23T09:07:11.461Z,996.37
2019-04-23T09:08:07.045Z,996.36
2019-04-23T09:09:00.099Z,996.32
2019-04-23T09:10:07.811Z,996.35
2019-04-23T09:11:20.022Z,996.35
2019-04-23T09:11:59.558Z,996.36
2019-04-23T09:13:31.904Z,996.34
2019-04-23T09:14:04.670Z,996.34
2019-04-23T09:15:07.435Z,996.33
2019-04-23T09:16:14.743Z,996.32
2019-04-23T09:17:06.907Z,996.32
2019-04-23T09:18:04.367Z,996.34
2019-04-23T09:19:11.408Z,996.33
2019-04-23T09:20:20.376Z,996.29
2019-04-23T09:21:03.480Z,996.34
2019-04-23T09:22:08.653Z,996.28
2019-04-23T09:22:54.990Z,996.24
2019-04-23T09:23:59.008Z,996.30
2019-04-23T09:25:18.527Z,996.30
2019-04-23T09:25:57.675Z,996.25
2019-04-23T09:27:09.826Z,996.24
2019-04-23T09:28:22.613Z,996.24
2019-04-23T09:29:28.317Z,996.25
2019-04-23T09:30:06.889Z,996.24
2019-04-23T09:31:17.349Z,996.27
2019-04-23T09:33:06.761Z,996.24
2019-04-23T09:34:04.915Z,996.25
2019-04-23T09:35:14.324Z,996.24
2019-04-23T09:36:10.839Z,996.20
2019-04-23T09:38:19.858Z,996.19
2019-04-23T09:39:08.375Z,996.16
2019-04-23T09:40:13.984Z,996.19
2019-04-23T09:42:08.680Z,996.15
2019-04-23T09:43:06.889Z,996.18
2019-04-23T09:44:14.435Z,996.14
2019-04-23T09:47:06.573Z,996.11
2019-04-23T09:48:01.687Z,996.07
2019-04-23T09:49:19.052Z,996.07
2019-04-23T09:50:12.387Z,996.10
2019-04-23T09:51:03.221Z,996.04
2019-04-23T09:52:09.468Z,996.06
2019-04-23T09:53:17.102Z,995.99
2019-04-23T09:54:09.546Z,996.03
2019-04-23T09:55:16.152Z,995.98
2019-04-23T09:56:01.100Z,995.96
2019-04-23T09:57:03.837Z,995.95
2019-04-23T09:59:10.959Z,995.95
2019-04-23T10:00:10.587Z,995.99
2019-04-23T10:01:00.372Z,996.02
2019-04-23T10:01:57.353Z,995.93
2019-04-23T10:02:56.849Z,995.88
2019-04-23T10:03:53.454Z,995.90
2019-04-23T10:04:57.486Z,995.88
2019-04-23T10:05:49.073Z,995.92
2019-04-23T10:06:49.442Z,995.88
2019-04-23T10:07:50.827Z,995.84
2019-04-23T10:08:44.999Z,995.86
2019-04-23T10:09:40.524Z,995.85
2019-04-23T10:10:40.499Z,995.83
2019-04-23T10:11:40.978Z,995.85
2019-04-23T10:12:40.008Z,995.80
2019-04-23T10:13:40.677Z,995.75
2019-04-23T10:14:51.211Z,995.75
2019-04-23T10:15:42.513Z,995.74
2019-04-23T10:16:41.295Z,995.69
2019-04-23T10:17:40.273Z,995.67
2019-04-23T10:18:41.376Z,995.66
2019-04-23T10:19:40.665Z,995.70
2019-04-23T10:20:40.400Z,995.70
2019-04-23T10:21:41.755Z,995.67
2019-04-23T10:22:42.084Z,995.64
2019-04-23T10:23:41.261Z,995.69
2019-04-23T10:24:41.112Z,995.66
2019-04-23T10:25:40.449Z,995.62
2019-04-23T10:26:41.864Z,995.63
2019-04-23T10:27:41.307Z,995.60
2019-04-23T10:28:42.046Z,995.57
2019-04-23T10:29:41.724Z,995.52
2019-04-23T10:30:40.915Z,995.51
2019-04-23T10:31:42.114Z,995.49
2019-04-23T10:32:40.964Z,995.48
2019-04-23T10:33:42.105Z,995.48
2019-04-23T10:34:54.222Z,995.49
2019-04-23T10:35:50.451Z,995.48
2019-04-23T10:36:42.338Z,995.46
2019-04-23T10:37:48.998Z,995.47
2019-04-23T10:38:50.492Z,995.50
2019-04-23T10:39:46.869Z,995.52
2019-04-23T10:40:45.846Z,995.52
2019-04-23T10:41:45.960Z,995.51
2019-04-23T10:42:44.609Z,995.49
2019-04-23T10:43:43.976Z,995.48
2019-04-23T10:44:43.899Z,995.41
2019-04-23T10:45:59.261Z,995.44
2019-04-23T10:47:02.803Z,995.48
2019-04-23T10:48:25.019Z,995.50
2019-04-23T10:50:16.999Z,995.51
2019-04-23T10:51:30.538Z,995.49
2019-04-23T10:52:13.288Z,995.50
2019-04-23T10:53:25.854Z,995.52
2019-04-23T10:54:25.088Z,995.52
2019-04-23T10:55:07.892Z,995.45
2019-04-23T10:56:11.318Z,995.47
2019-04-23T10:57:15.911Z,995.47
2019-04-23T10:58:21.600Z,995.47
2019-04-23T10:59:14.789Z,995.43
2019-04-23T11:00:08.811Z,995.43
2019-04-23T11:01:16.376Z,995.40
2019-04-23T11:02:29.034Z,995.39
2019-04-23T11:03:21.743Z,995.40
2019-04-23T11:04:21.476Z,995.42
2019-04-23T11:05:35.676Z,995.38
2019-04-23T11:06:17.737Z,995.40
2019-04-23T11:07:26.247Z,995.39
2019-04-23T11:08:11.247Z,995.38
2019-04-23T11:09:27.264Z,995.39
2019-04-23T11:10:08.607Z,995.39
2019-04-23T11:11:18.045Z,995.40
2019-04-23T11:12:23.719Z,995.37
2019-04-23T11:13:20.592Z,995.37
2019-04-23T11:14:23.151Z,995.37
2019-04-23T11:15:36.150Z,995.39
2019-04-23T11:16:38.589Z,995.36
2019-04-23T11:17:15.605Z,995.35
2019-04-23T11:18:04.252Z,995.35
2019-04-23T11:19:15.390Z,995.37
2019-04-23T11:22:32.891Z,995.40
2019-04-23T11:23:04.630Z,995.38
2019-04-23T11:24:20.983Z,995.31
2019-04-23T11:25:20.349Z,995.39
2019-04-23T11:26:20.007Z,995.36
2019-04-23T11:27:18.671Z,995.45
2019-04-23T11:29:24.204Z,995.38
2019-04-23T11:30:33.299Z,995.34
2019-04-23T11:31:26.004Z,995.30
2019-04-23T11:34:26.656Z,995.24
2019-04-23T11:35:25.518Z,995.21
2019-04-23T11:36:41.200Z,995.21
2019-04-23T11:37:24.979Z,995.21
2019-04-23T11:38:44.525Z,995.20
2019-04-23T11:39:16.208Z,995.22
2019-04-23T11:40:15.547Z,995.23
2019-04-23T11:41:23.397Z,995.25
2019-04-23T11:44:22.115Z,995.31
2019-04-23T11:45:28.218Z,995.22
2019-04-23T11:46:32.276Z,995.24
2019-04-23T11:47:32.591Z,995.24
2019-04-23T11:48:34.349Z,995.25
2019-04-23T11:49:26.629Z,995.23
2019-04-23T11:50:24.185Z,995.22
2019-04-23T11:52:18.937Z,995.20
2019-04-23T11:53:20.678Z,995.23
2019-04-23T11:54:21.327Z,995.22
2019-04-23T11:55:29.288Z,995.20
2019-04-23T11:56:33.540Z,995.28
2019-04-23T11:59:29.695Z,995.22
2019-04-23T12:00:30.811Z,995.21
2019-04-23T12:01:37.799Z,995.19
2019-04-23T12:02:19.007Z,995.18
2019-04-23T12:03:07.664Z,995.20
2019-04-23T12:05:26.854Z,995.14
2019-04-23T12:06:21.943Z,995.15
2019-04-23T12:07:17.289Z,995.15
2019-04-23T12:08:25.110Z,995.13
2019-04-23T12:09:31.441Z,995.14
2019-04-23T12:10:23.674Z,995.14
2019-04-23T12:12:17.152Z,995.07
2019-04-23T12:13:24.478Z,995.05
2019-04-23T12:14:37.399Z,995.04
2019-04-23T12:15:19.674Z,995.07
2019-04-23T12:16:23.865Z,995.10
2019-04-23T12:18:24.139Z,995.09
2019-04-23T12:20:30.463Z,995.12
2019-04-23T12:21:20.485Z,995.08
2019-04-23T12:23:45.369Z,994.99
2019-04-23T12:24:28.842Z,994.99
2019-04-23T12:26:29.858Z,994.96
2019-04-23T12:27:25.544Z,994.90
2019-04-23T12:28:23.094Z,994.92
2019-04-23T12:29:27.824Z,994.84
2019-04-23T12:31:17.265Z,994.88
2019-04-23T12:32:35.476Z,994.92
2019-04-23T12:33:36.124Z,994.89
2019-04-23T12:34:28.464Z,994.89
2019-04-23T12:35:29.085Z,994.87
2019-04-23T12:36:26.213Z,994.79
2019-04-23T12:37:21.483Z,994.77
2019-04-23T12:39:21.943Z,994.76
2019-04-23T12:40:23.099Z,994.74
2019-04-23T12:41:27.127Z,994.75
2019-04-23T12:42:43.549Z,994.80
2019-04-23T12:44:18.851Z,994.76
2019-04-23T12:46:26.005Z,994.77
2019-04-23T12:47:40.267Z,994.75
2019-04-23T12:48:33.923Z,994.73
2019-04-23T12:49:37.846Z,994.72
2019-04-23T12:50:41.733Z,994.74
2019-04-23T12:51:29.912Z,994.72
2019-04-23T12:52:28.390Z,994.75
2019-04-23T12:53:29.337Z,994.78
2019-04-23T12:54:31.911Z,994.76
2019-04-23T12:55:22.374Z,994.73
2019-04-23T12:56:34.449Z,994.74
2019-04-23T12:57:31.032Z,994.69
2019-04-23T12:58:21.965Z,994.66
2019-04-23T12:59:23.839Z,994.64
2019-04-23T13:00:23.114Z,994.69
2019-04-23T13:01:22.622Z,994.66
2019-04-23T13:02:27.343Z,994.57
2019-04-23T13:04:26.136Z,994.59
2019-04-23T13:05:25.942Z,994.63
2019-04-23T13:06:17.082Z,994.56
2019-04-23T13:07:29.139Z,994.59
2019-04-23T13:08:26.924Z,994.56
2019-04-23T13:09:32.834Z,994.61
2019-04-23T13:10:22.570Z,994.59
2019-04-23T13:11:21.523Z,994.54
2019-04-23T13:12:32.814Z,994.54
2019-04-23T13:14:30.159Z,994.53
2019-04-23T13:16:25.359Z,994.47
2019-04-23T13:17:30.063Z,994.49
2019-04-23T13:18:23.664Z,994.50
2019-04-23T13:19:33.960Z,994.51
2019-04-23T13:20:23.497Z,994.51
2019-04-23T13:21:45.060Z,994.47
2019-04-23T13:22:23.948Z,994.52
2019-04-23T13:23:22.175Z,994.46
2019-04-23T13:24:22.258Z,994.49
2019-04-23T13:25:29.684Z,994.48
2019-04-23T13:26:13.005Z,994.52
2019-04-23T13:27:29.019Z,994.46
2019-04-23T13:28:23.533Z,994.51
2019-04-23T13:29:34.442Z,994.43
2019-04-23T13:30:56.874Z,994.45
2019-04-23T13:31:14.506Z,994.47
2019-04-23T13:32:20.793Z,994.46
2019-04-23T13:33:27.949Z,994.45
2019-04-23T13:34:27.572Z,994.44
2019-04-23T13:35:38.083Z,994.38
2019-04-23T13:36:24.341Z,994.39
2019-04-23T13:37:31.663Z,994.42
2019-04-23T13:38:25.009Z,994.38
2019-04-23T13:39:29.137Z,994.40
2019-04-23T13:40:24.366Z,994.39
2019-04-23T13:41:28.858Z,994.37
2019-04-23T13:42:33.141Z,994.40
2019-04-23T13:43:34.748Z,994.36
2019-04-23T13:44:25.711Z,994.41
2019-04-23T13:45:47.388Z,994.36
2019-04-23T13:46:17.990Z,994.34
2019-04-23T13:47:41.392Z,994.33
2019-04-23T13:48:18.002Z,994.34
2019-04-23T13:49:26.286Z,994.33
2019-04-23T13:50:37.371Z,994.30
2019-04-23T13:52:55.055Z,994.29
2019-04-23T13:53:38.444Z,994.27
2019-04-23T13:55:17.259Z,994.26
2019-04-23T13:56:46.525Z,994.25
2019-04-23T13:58:22.691Z,994.23
2019-04-23T13:59:37.793Z,994.23
2019-04-23T14:00:34.721Z,994.17
2019-04-23T14:02:34.292Z,994.11
2019-04-23T14:03:30.211Z,994.15
2019-04-23T14:04:34.966Z,994.13
2019-04-23T14:05:26.776Z,994.20
2019-04-23T14:07:32.946Z,994.21
2019-04-23T14:08:33.076Z,994.12
2019-04-23T14:09:31.864Z,994.15
2019-04-23T14:11:30.873Z,994.18
2019-04-23T14:12:26.090Z,994.17
2019-04-23T14:14:39.324Z,994.17
2019-04-23T14:15:39.059Z,994.18
2019-04-23T14:16:37.159Z,994.18
2019-04-23T14:19:16.864Z,994.09
2019-04-23T14:22:56.221Z,994.11
2019-04-23T14:23:39.714Z,994.18
2019-04-23T14:24:26.784Z,994.12
2019-04-23T14:25:50.612Z,994.12
2019-04-23T14:26:29.535Z,994.14
2019-04-23T14:28:28.039Z,994.04
2019-04-23T14:29:31.867Z,994.17
2019-04-23T14:30:31.384Z,994.10
2019-04-23T14:31:23.455Z,994.07
2019-04-23T14:33:40.154Z,994.11
2019-04-23T14:34:27.213Z,994.11
2019-04-23T14:35:32.515Z,994.11
2019-04-23T14:36:25.373Z,994.07
2019-04-23T14:37:23.304Z,994.08
2019-04-23T14:39:28.694Z,994.08
2019-04-23T14:40:58.921Z,994.09
2019-04-23T14:41:26.412Z,994.17
2019-04-23T14:42:33.383Z,994.06
2019-04-23T14:44:23.721Z,994.01
2019-04-23T14:45:46.738Z,994.04
2019-04-23T14:46:43.096Z,994.05
2019-04-23T14:47:30.491Z,994.03
2019-04-23T14:48:23.157Z,993.99
2019-04-23T14:49:25.797Z,994.07
2019-04-23T14:50:34.565Z,994.08
2019-04-23T14:51:44.317Z,994.04
2019-04-23T14:52:31.352Z,994.02
2019-04-23T14:53:40.662Z,994.00
2019-04-23T14:55:07.520Z,994.05
2019-04-23T14:57:32.689Z,994.07
2019-04-23T14:59:15.031Z,994.03
2019-04-23T15:00:33.586Z,994.05
2019-04-23T15:01:36.115Z,993.95
2019-04-23T15:03:33.261Z,993.97
2019-04-23T15:04:27.158Z,993.95
2019-04-23T15:07:31.692Z,993.95
2019-04-23T15:08:32.863Z,993.93
2019-04-23T15:09:43.032Z,993.95
2019-04-23T15:10:32.635Z,993.96
2019-04-23T15:13:31.672Z,993.99
2019-04-23T15:14:33.937Z,993.95